Time;durP1;ratioP1;P1;durP2;ratioP2;P2;SDS_P1;SDS_P2;PMS_P1;PMS_P2;Temp;Humidity;BMP_temperature;BMP_pressure;BME280_temperature;BME280_humidity;BME280_pressure;Samples;Min_cycle;Max_cycle;Signal;HPM_P1;HPM_P2
2022/11/08 00:03:29;;;;;;;;;;;12.10;99.90;;;;;;5021474;28;20041;-70
2022/11/08 00:14:10;;;;;;;;;;;12.00;99.90;;;;;;5011563;28;19967;-69
2022/11/08 00:16:37;;;;;;;;;;;12.10;99.90;;;;;;5012432;28;19969;-69
2022/11/08 00:19:03;;;;;;;;;;;12.10;99.90;;;;;;5011443;28;19984;-69
2022/11/08 00:21:30;;;;;;;;;;;12.10;99.90;;;;;;5003744;28;20367;-69
2022/11/08 00:23:57;;;;;;;;;;;12.10;99.90;;;;;;5011188;28;20024;-70
2022/11/08 00:26:24;;;;;;;;;;;12.10;99.90;;;;;;5011476;28;20375;-69
2022/11/08 00:28:50;;;;;;;;;;;12.00;99.90;;;;;;5013391;28;20070;-69
2022/11/08 00:31:18;;;;;;;;;;;12.10;99.90;;;;;;5008191;28;19956;-70
2022/11/08 00:33:45;;;;;;;;;;;12.10;99.90;;;;;;5008063;28;20016;-69
2022/11/08 00:36:12;;;;;;;;;;;12.00;99.90;;;;;;5011031;28;20443;-70
2022/11/08 00:38:41;;;;;;;;;;;12.10;99.90;;;;;;5010067;28;20012;-69
2022/11/08 00:41:07;;;;;;;;;;;12.00;99.90;;;;;;5011653;28;19925;-69
2022/11/08 00:43:34;;;;;;;;;;;11.90;99.90;;;;;;5011834;28;20395;-69
2022/11/08 00:46:01;;;;;;;;;;;11.90;99.90;;;;;;5011980;28;20020;-70
2022/11/08 00:48:29;;;;;;;;;;;11.90;99.90;;;;;;5011273;28;20032;-70
2022/11/08 00:50:55;;;;;;;;;;;11.80;99.90;;;;;;5011251;28;19976;-69
2022/11/08 00:53:22;;;;;;;;;;;11.80;99.90;;;;;;5011405;28;20015;-70
2022/11/08 00:55:49;;;;;;;;;;;11.80;99.90;;;;;;5011369;28;20385;-69
2022/11/08 00:58:15;;;;;;;;;;;11.80;99.90;;;;;;5010947;28;19991;-69
2022/11/08 01:00:42;;;;;;;;;;;11.80;99.90;;;;;;5010910;28;20012;-69
2022/11/08 01:03:20;;;;;;;;;;;11.80;99.90;;;;;;5011423;28;19975;-69
2022/11/08 01:05:49;;;;;;;;;;;11.80;99.90;;;;;;5011377;28;19978;-69
2022/11/08 01:08:16;;;;;;;;;;;11.70;99.90;;;;;;5011516;28;19965;-70
2022/11/08 01:10:43;;;;;;;;;;;11.60;99.90;;;;;;5010928;28;19926;-70
2022/11/08 01:13:10;;;;;;;;;;;11.70;99.90;;;;;;5011612;28;20025;-70
2022/11/08 01:15:39;;;;;;;;;;;11.70;99.90;;;;;;5011244;28;19933;-70
2022/11/08 01:18:06;;;;;;;;;;;11.80;99.90;;;;;;5011642;28;19933;-70
2022/11/08 01:20:33;;;;;;;;;;;11.80;99.90;;;;;;4996013;28;20504;-69
2022/11/08 01:23:01;;;;;;;;;;;11.80;99.90;;;;;;5010464;28;19926;-70
2022/11/08 01:25:28;;;;;;;;;;;11.90;99.90;;;;;;5010877;28;20016;-70
2022/11/08 01:27:54;;;;;;;;;;;11.90;99.90;;;;;;5009537;28;20008;-71
2022/11/08 01:30:21;;;;;;;;;;;11.90;99.90;;;;;;5011135;28;19972;-70
2022/11/08 01:32:48;;;;;;;;;;;11.90;99.90;;;;;;5008930;28;20021;-70
2022/11/08 01:35:14;;;;;;;;;;;12.00;99.90;;;;;;5011882;28;20384;-70
2022/11/08 01:37:41;;;;;;;;;;;11.90;99.90;;;;;;5009569;28;19925;-70
2022/11/08 01:40:10;;;;;;;;;;;11.90;99.90;;;;;;5011152;28;19930;-70
2022/11/08 01:42:36;;;;;;;;;;;11.90;99.90;;;;;;4996191;28;19933;-70
2022/11/08 01:45:04;;;;;;;;;;;11.90;99.90;;;;;;5011256;28;20297;-70
2022/11/08 01:47:31;;;;;;;;;;;11.90;99.90;;;;;;5010883;28;20016;-70
2022/11/08 01:50:00;;;;;;;;;;;11.90;99.90;;;;;;5009731;28;19929;-70
2022/11/08 01:52:29;;;;;;;;;;;11.90;99.90;;;;;;5010178;28;19972;-70
2022/11/08 01:54:58;;;;;;;;;;;11.90;99.90;;;;;;5001997;28;20292;-70
2022/11/08 01:57:28;;;;;;;;;;;11.90;99.90;;;;;;5003707;28;20009;-70
2022/11/08 01:59:56;;;;;;;;;;;11.90;99.90;;;;;;5010243;28;19961;-70
2022/11/08 02:02:23;;;;;;;;;;;11.90;99.90;;;;;;5009707;28;20024;-70
2022/11/08 02:04:50;;;;;;;;;;;11.90;99.90;;;;;;5009894;28;20043;-70
2022/11/08 02:07:17;;;;;;;;;;;11.90;99.90;;;;;;5010907;28;19932;-69
2022/11/08 02:09:45;;;;;;;;;;;11.90;99.90;;;;;;5010982;28;20343;-70
2022/11/08 02:12:13;;;;;;;;;;;11.90;99.90;;;;;;5010508;28;20020;-70
2022/11/08 02:14:41;;;;;;;;;;;11.90;99.90;;;;;;5010245;28;19926;-69
2022/11/08 02:17:09;;;;;;;;;;;11.90;99.90;;;;;;5010729;28;20012;-69
2022/11/08 02:19:39;;;;;;;;;;;11.90;99.90;;;;;;5009001;28;20301;-70
2022/11/08 02:22:09;;;;;;;;;;;11.90;99.90;;;;;;4993359;28;19961;-70
2022/11/08 02:24:37;;;;;;;;;;;11.80;99.90;;;;;;5009458;28;19968;-71
2022/11/08 02:27:04;;;;;;;;;;;11.80;99.90;;;;;;5009840;28;20024;-71
2022/11/08 02:29:31;;;;;;;;;;;11.80;99.90;;;;;;5009578;28;20359;-70
2022/11/08 02:31:59;;;;;;;;;;;11.80;99.90;;;;;;5010118;28;20016;-70
2022/11/08 02:34:27;;;;;;;;;;;11.80;99.90;;;;;;5010365;28;20028;-70
2022/11/08 02:36:55;;;;;;;;;;;11.80;99.90;;;;;;4997716;28;19932;-69
2022/11/08 02:39:21;;;;;;;;;;;11.90;99.90;;;;;;5010719;28;19933;-70
2022/11/08 02:41:49;;;;;;;;;;;11.90;99.90;;;;;;5011248;28;19973;-70
2022/11/08 02:44:16;;;;;;;;;;;11.80;99.90;;;;;;5003887;28;19968;-70
2022/11/08 02:46:43;;;;;;;;;;;11.90;99.90;;;;;;5009849;28;20021;-70
2022/11/08 02:49:09;;;;;;;;;;;11.90;99.90;;;;;;5010426;28;19926;-70
2022/11/08 02:51:36;;;;;;;;;;;11.90;99.90;;;;;;5009636;28;19930;-70
2022/11/08 02:54:02;;;;;;;;;;;11.90;99.90;;;;;;5009636;28;19925;-70
2022/11/08 02:56:30;;;;;;;;;;;11.80;99.90;;;;;;5009945;28;20029;-69
2022/11/08 02:58:57;;;;;;;;;;;11.80;99.90;;;;;;5008934;28;19933;-70
2022/11/08 03:01:24;;;;;;;;;;;11.80;99.90;;;;;;5009243;28;20388;-70
2022/11/08 03:03:51;;;;;;;;;;;11.80;99.90;;;;;;5006961;28;20388;-70
2022/11/08 03:06:17;;;;;;;;;;;11.80;99.90;;;;;;5009781;28;20463;-70
2022/11/08 03:08:44;;;;;;;;;;;11.80;99.90;;;;;;5009948;28;19933;-69
2022/11/08 03:11:11;;;;;;;;;;;11.70;99.90;;;;;;5010467;28;19926;-69
2022/11/08 03:13:37;;;;;;;;;;;11.70;99.90;;;;;;5009952;28;19967;-70
2022/11/08 03:16:06;;;;;;;;;;;11.70;99.90;;;;;;5008922;28;20012;-69
2022/11/08 03:18:33;;;;;;;;;;;11.70;99.90;;;;;;5009357;28;19967;-70
2022/11/08 03:21:00;;;;;;;;;;;11.70;99.90;;;;;;5009201;28;20280;-70
2022/11/08 03:23:27;;;;;;;;;;;11.70;99.90;;;;;;5009403;28;20318;-69
2022/11/08 03:25:53;;;;;;;;;;;11.60;99.90;;;;;;5008997;28;20295;-69
2022/11/08 03:28:20;;;;;;;;;;;11.60;99.90;;;;;;5009752;28;19926;-69
2022/11/08 03:30:49;;;;;;;;;;;11.60;99.90;;;;;;5009257;28;19930;-69
2022/11/08 03:33:17;;;;;;;;;;;11.60;99.90;;;;;;5008528;28;19933;-69
2022/11/08 03:35:44;;;;;;;;;;;11.70;99.90;;;;;;5009648;28;19939;-69
2022/11/08 03:38:10;;;;;;;;;;;11.60;99.90;;;;;;4999160;28;19925;-69
2022/11/08 03:40:37;;;;;;;;;;;11.60;99.90;;;;;;4991112;28;19926;-69
2022/11/08 03:43:04;;;;;;;;;;;11.70;99.90;;;;;;5009463;28;19925;-69
2022/11/08 03:45:30;;;;;;;;;;;11.70;99.90;;;;;;5012412;28;20008;-69
2022/11/08 03:47:58;;;;;;;;;;;11.70;99.90;;;;;;5012796;28;19925;-69
2022/11/08 03:50:26;;;;;;;;;;;11.70;99.90;;;;;;5012700;28;19925;-69
2022/11/08 03:52:53;;;;;;;;;;;11.70;99.90;;;;;;5012133;28;20071;-69
2022/11/08 03:55:21;;;;;;;;;;;11.60;99.90;;;;;;5012945;28;20354;-69
2022/11/08 03:57:48;;;;;;;;;;;11.60;99.90;;;;;;5012679;28;19925;-69
2022/11/08 04:00:16;;;;;;;;;;;11.60;99.90;;;;;;5012723;28;19965;-68
2022/11/08 04:02:43;;;;;;;;;;;11.70;99.90;;;;;;5012480;28;20396;-68
2022/11/08 04:05:10;;;;;;;;;;;11.80;99.90;;;;;;5011317;28;20352;-68
2022/11/08 04:07:38;;;;;;;;;;;11.80;99.90;;;;;;5012315;28;19926;-68
2022/11/08 04:10:06;;;;;;;;;;;11.80;99.90;;;;;;5001359;28;20023;-69
2022/11/08 04:15:17;;;;;;;;;;;11.90;99.90;;;;;;5012182;28;20422;-69
2022/11/08 04:23:16;;;;;;;;;;;11.80;99.90;;;;;;5011497;28;19947;-69
2022/11/08 04:25:43;;;;;;;;;;;11.80;99.90;;;;;;5012456;28;19925;-69
2022/11/08 04:28:10;;;;;;;;;;;11.80;99.90;;;;;;5012526;28;20009;-69
2022/11/08 04:30:36;;;;;;;;;;;11.80;99.90;;;;;;5012374;28;19933;-69
2022/11/08 04:33:04;;;;;;;;;;;11.80;99.90;;;;;;5011508;28;20467;-69
2022/11/08 04:35:31;;;;;;;;;;;11.80;99.90;;;;;;4997608;28;20579;-69
2022/11/08 04:37:58;;;;;;;;;;;11.90;99.90;;;;;;5004670;28;19925;-69
2022/11/08 04:40:26;;;;;;;;;;;11.80;99.90;;;;;;5010944;28;20038;-69
2022/11/08 04:42:53;;;;;;;;;;;11.70;99.90;;;;;;5011186;28;20017;-69
2022/11/08 04:45:20;;;;;;;;;;;11.70;99.90;;;;;;5009431;28;19925;-69
2022/11/08 04:47:46;;;;;;;;;;;11.60;99.90;;;;;;4998938;28;20617;-69
2022/11/08 04:50:13;;;;;;;;;;;11.60;99.90;;;;;;5012014;28;19934;-68
2022/11/08 04:52:40;;;;;;;;;;;11.60;99.90;;;;;;5011992;28;19994;-68
2022/11/08 04:55:07;;;;;;;;;;;11.60;99.90;;;;;;5011816;28;19968;-68
2022/11/08 04:57:35;;;;;;;;;;;11.60;99.90;;;;;;5011613;28;20367;-69
2022/11/08 05:00:02;;;;;;;;;;;11.60;99.90;;;;;;5011745;28;19926;-68
2022/11/08 05:02:29;;;;;;;;;;;11.50;99.90;;;;;;5011545;28;19925;-69
2022/11/08 05:04:56;;;;;;;;;;;11.50;99.90;;;;;;5006422;28;20376;-69
2022/11/08 05:07:23;;;;;;;;;;;11.60;99.90;;;;;;5012169;28;20447;-68
2022/11/08 05:09:49;;;;;;;;;;;11.60;99.90;;;;;;5011090;28;20404;-69
2022/11/08 05:12:16;;;;;;;;;;;11.60;99.90;;;;;;5011472;28;19925;-69
2022/11/08 05:14:44;;;;;;;;;;;11.50;99.90;;;;;;5011332;28;19925;-69
2022/11/08 05:17:11;;;;;;;;;;;11.50;99.90;;;;;;5010990;28;19957;-70
2022/11/08 05:25:06;;;;;;;;;;;11.70;99.90;;;;;;5010456;28;19933;-69
2022/11/08 05:27:33;;;;;;;;;;;11.60;99.90;;;;;;5011336;28;19932;-70
2022/11/08 05:30:01;;;;;;;;;;;11.60;99.90;;;;;;5011128;28;20358;-71
2022/11/08 05:32:28;;;;;;;;;;;11.60;99.90;;;;;;5010291;28;20016;-69
2022/11/08 05:34:55;;;;;;;;;;;11.60;99.90;;;;;;5011393;28;19926;-68
2022/11/08 05:37:21;;;;;;;;;;;11.60;99.90;;;;;;5006054;28;19965;-69
2022/11/08 05:39:48;;;;;;;;;;;11.60;99.90;;;;;;5009835;28;20016;-69
2022/11/08 05:42:15;;;;;;;;;;;11.70;99.90;;;;;;5010919;28;20040;-69
2022/11/08 05:44:41;;;;;;;;;;;11.70;99.90;;;;;;5010840;28;19926;-69
2022/11/08 05:47:09;;;;;;;;;;;11.70;99.90;;;;;;5009713;28;19947;-69
2022/11/08 05:49:36;;;;;;;;;;;11.80;99.90;;;;;;5010631;28;20251;-69
2022/11/08 05:52:02;;;;;;;;;;;11.70;99.90;;;;;;5010420;28;20414;-69
2022/11/08 05:54:29;;;;;;;;;;;11.80;99.90;;;;;;5039944;28;20443;-70
2022/11/08 05:56:56;;;;;;;;;;;11.80;99.90;;;;;;5010199;28;20478;-69
2022/11/08 05:59:23;;;;;;;;;;;11.70;99.90;;;;;;5009755;28;19932;-70
2022/11/08 06:01:49;;;;;;;;;;;11.70;99.90;;;;;;5004282;28;19933;-69
2022/11/08 06:04:17;;;;;;;;;;;11.80;99.90;;;;;;5010608;28;20012;-68
2022/11/08 06:06:44;;;;;;;;;;;11.80;99.90;;;;;;5008763;28;19926;-69
2022/11/08 06:09:11;;;;;;;;;;;11.70;99.90;;;;;;5003969;28;20460;-69
2022/11/08 06:11:37;;;;;;;;;;;11.60;99.90;;;;;;5009949;28;19926;-72
2022/11/08 06:14:05;;;;;;;;;;;11.70;99.90;;;;;;5008999;28;19925;-72
2022/11/08 06:16:31;;;;;;;;;;;11.70;99.90;;;;;;5009460;28;19964;-71
2022/11/08 06:18:58;;;;;;;;;;;11.70;99.90;;;;;;5010088;28;19973;-71
2022/11/08 06:21:27;;;;;;;;;;;11.70;99.90;;;;;;5015133;28;20303;-71
2022/11/08 06:23:56;;;;;;;;;;;11.60;99.90;;;;;;5017453;28;19925;-72
2022/11/08 06:26:24;;;;;;;;;;;11.60;99.90;;;;;;5005590;28;19932;-72
2022/11/08 06:28:50;;;;;;;;;;;11.60;99.90;;;;;;5071377;28;19938;-72
2022/11/08 06:31:17;;;;;;;;;;;11.70;99.90;;;;;;5008202;28;19926;-70
2022/11/08 06:33:44;;;;;;;;;;;11.60;99.90;;;;;;5006211;28;19926;-71
2022/11/08 06:36:11;;;;;;;;;;;11.60;99.90;;;;;;5009476;28;20009;-71
2022/11/08 06:38:39;;;;;;;;;;;11.60;99.90;;;;;;5002048;28;19936;-72
2022/11/08 06:41:06;;;;;;;;;;;11.60;99.90;;;;;;5002036;28;19926;-73
2022/11/08 06:43:33;;;;;;;;;;;11.60;99.90;;;;;;5026645;28;19936;-73
2022/11/08 06:46:00;;;;;;;;;;;11.60;99.90;;;;;;5031342;22;20450;-72
2022/11/08 06:48:27;;;;;;;;;;;11.70;99.90;;;;;;5071456;28;19936;-73
2022/11/08 06:50:53;;;;;;;;;;;11.70;99.90;;;;;;5071096;28;19947;-73
2022/11/08 06:53:20;;;;;;;;;;;11.70;99.90;;;;;;5072282;28;19925;-72
2022/11/08 06:55:48;;;;;;;;;;;11.70;99.90;;;;;;5070350;28;19928;-72
2022/11/08 06:58:15;;;;;;;;;;;11.70;99.90;;;;;;5076993;28;20019;-73
2022/11/08 07:00:42;;;;;;;;;;;11.80;99.90;;;;;;5072810;28;19924;-72
2022/11/08 07:03:09;;;;;;;;;;;11.80;99.90;;;;;;5070488;28;19932;-73
2022/11/08 07:05:35;;;;;;;;;;;11.80;99.90;;;;;;5070106;28;19924;-72
2022/11/08 07:08:02;;;;;;;;;;;11.90;99.90;;;;;;5069501;28;20394;-73
2022/11/08 07:10:30;;;;;;;;;;;11.80;99.90;;;;;;5067644;28;19965;-72
2022/11/08 07:13:02;;;;;;;;;;;11.80;99.90;;;;;;5068790;28;19962;-70
2022/11/08 07:15:29;;;;;;;;;;;11.90;99.90;;;;;;5068498;28;20359;-72
2022/11/08 07:17:59;;;;;;;;;;;11.90;99.90;;;;;;5069522;28;19943;-71
2022/11/08 07:20:25;;;;;;;;;;;11.90;99.90;;;;;;5069418;28;20387;-72
2022/11/08 07:22:54;;;;;;;;;;;11.90;99.90;;;;;;5071038;28;20638;-74
2022/11/08 07:25:20;;;;;;;;;;;11.90;99.90;;;;;;5070773;28;19956;-73
2022/11/08 07:27:47;;;;;;;;;;;12.00;99.90;;;;;;5062776;28;19932;-74
2022/11/08 07:30:15;;;;;;;;;;;12.00;99.90;;;;;;5066888;28;19956;-74
2022/11/08 07:32:42;;;;;;;;;;;12.00;99.90;;;;;;5068533;28;20014;-74
2022/11/08 07:35:08;;;;;;;;;;;12.00;99.90;;;;;;5067096;28;19963;-73
2022/11/08 07:37:35;;;;;;;;;;;12.10;99.90;;;;;;5064343;28;19933;-72
2022/11/08 07:40:02;;;;;;;;;;;12.10;99.90;;;;;;5065334;28;20189;-73
2022/11/08 07:42:29;;;;;;;;;;;12.10;99.90;;;;;;5070608;28;20058;-73
2022/11/08 07:44:55;;;;;;;;;;;12.10;99.90;;;;;;5069558;28;19965;-73
2022/11/08 07:47:23;;;;;;;;;;;12.20;99.90;;;;;;5069510;28;19924;-72
2022/11/08 07:49:50;;;;;;;;;;;12.20;99.90;;;;;;5070172;28;19924;-71
2022/11/08 07:52:17;;;;;;;;;;;12.40;99.90;;;;;;5069780;28;20015;-71
2022/11/08 07:54:44;;;;;;;;;;;12.40;99.90;;;;;;5069307;28;19932;-71
2022/11/08 07:57:11;;;;;;;;;;;12.50;99.90;;;;;;5064468;28;20011;-70
2022/11/08 07:59:38;;;;;;;;;;;12.60;99.90;;;;;;5064908;28;20015;-70
2022/11/08 08:02:04;;;;;;;;;;;12.60;99.90;;;;;;5068099;28;20023;-71
2022/11/08 08:04:32;;;;;;;;;;;12.70;99.90;;;;;;5066533;28;20043;-71
2022/11/08 08:06:59;;;;;;;;;;;12.70;99.90;;;;;;5065273;28;20386;-71
2022/11/08 08:09:26;;;;;;;;;;;12.80;99.90;;;;;;5065032;28;19958;-70
2022/11/08 08:11:52;;;;;;;;;;;12.90;99.90;;;;;;5063822;28;20011;-71
2022/11/08 08:16:53;;;;;;;;;;;13.10;99.90;;;;;;5094282;22;20375;-72
2022/11/08 08:19:20;;;;;;;;;;;13.10;99.90;;;;;;5088854;28;19928;-71
2022/11/08 08:21:48;;;;;;;;;;;13.20;99.90;;;;;;5087777;28;19932;-70
2022/11/08 08:24:15;;;;;;;;;;;13.40;99.90;;;;;;5090706;28;19924;-72
2022/11/08 08:26:41;;;;;;;;;;;13.70;99.90;;;;;;5088961;28;20272;-72
2022/11/08 08:29:08;;;;;;;;;;;13.50;99.90;;;;;;5091210;28;19967;-73
2022/11/08 08:31:35;;;;;;;;;;;13.40;99.90;;;;;;5093826;28;20310;-71
2022/11/08 08:34:01;;;;;;;;;;;13.30;99.90;;;;;;5097005;28;20306;-72
2022/11/08 08:36:28;;;;;;;;;;;13.20;99.90;;;;;;5089882;28;19967;-71
2022/11/08 08:38:56;;;;;;;;;;;13.30;99.90;;;;;;5098445;28;19924;-72
2022/11/08 08:41:23;;;;;;;;;;;13.50;99.90;;;;;;5098225;28;20026;-73
2022/11/08 08:43:49;;;;;;;;;;;13.60;99.90;;;;;;5097686;28;20371;-71
2022/11/08 08:46:16;;;;;;;;;;;13.60;99.90;;;;;;5089207;28;20394;-70
2022/11/08 08:48:42;;;;;;;;;;;13.80;99.90;;;;;;5096256;28;19924;-72
2022/11/08 08:51:09;;;;;;;;;;;13.90;99.90;;;;;;5095104;28;20015;-73
2022/11/08 08:53:36;;;;;;;;;;;14.10;99.90;;;;;;5100518;28;19924;-71
2022/11/08 08:56:05;;;;;;;;;;;14.80;99.90;;;;;;5101437;28;19939;-72
2022/11/08 08:58:32;;;;;;;;;;;15.50;99.90;;;;;;5098080;28;20390;-71
2022/11/08 09:01:00;;;;;;;;;;;16.40;98.40;;;;;;5099639;28;20031;-73
2022/11/08 09:03:26;;;;;;;;;;;16.20;98.00;;;;;;5101984;28;20303;-72
2022/11/08 09:05:53;;;;;;;;;;;15.90;98.50;;;;;;5100716;28;20018;-72
2022/11/08 09:08:20;;;;;;;;;;;15.80;99.90;;;;;;5102076;28;20037;-72
2022/11/08 09:10:52;;;;;;;;;;;15.30;99.90;;;;;;5096806;28;19931;-72
2022/11/08 09:13:20;;;;;;;;;;;15.00;99.90;;;;;;5053223;22;19934;-71
2022/11/08 09:15:46;;;;;;;;;;;14.90;99.90;;;;;;5002617;28;20021;-72
2022/11/08 09:18:14;;;;;;;;;;;14.60;99.90;;;;;;5000838;28;19991;-72
2022/11/08 09:20:42;;;;;;;;;;;14.40;99.90;;;;;;5006511;28;19926;-72
2022/11/08 09:23:09;;;;;;;;;;;14.30;99.90;;;;;;5005105;28;19933;-72
2022/11/08 09:25:36;;;;;;;;;;;14.30;99.90;;;;;;5007830;28;19968;-72
2022/11/08 09:28:03;;;;;;;;;;;14.20;99.90;;;;;;5007915;28;20334;-72
2022/11/08 09:30:31;;;;;;;;;;;14.10;99.90;;;;;;5004569;28;19968;-71
2022/11/08 09:32:58;;;;;;;;;;;14.10;99.90;;;;;;4999347;28;20021;-71
2022/11/08 09:35:24;;;;;;;;;;;14.10;99.90;;;;;;5008717;28;19933;-71
2022/11/08 09:37:52;;;;;;;;;;;14.10;99.90;;;;;;4997514;28;19932;-71
2022/11/08 09:40:21;;;;;;;;;;;14.10;99.90;;;;;;5000089;28;19926;-72
2022/11/08 09:42:53;;;;;;;;;;;14.10;99.90;;;;;;5005337;28;20325;-72
2022/11/08 09:45:25;;;;;;;;;;;14.00;99.90;;;;;;4992071;28;20013;-71
2022/11/08 09:47:57;;;;;;;;;;;14.00;99.90;;;;;;5008140;28;20032;-71
2022/11/08 09:50:26;;;;;;;;;;;14.10;99.90;;;;;;5002689;28;19941;-72
2022/11/08 09:52:57;;;;;;;;;;;14.10;99.90;;;;;;5004796;28;20410;-70
2022/11/08 09:55:27;;;;;;;;;;;14.10;99.90;;;;;;5004976;28;20411;-71
2022/11/08 09:57:58;;;;;;;;;;;14.20;99.90;;;;;;5004448;28;19926;-71
2022/11/08 10:00:25;;;;;;;;;;;14.30;99.90;;;;;;5003822;28;20057;-72
2022/11/08 10:02:52;;;;;;;;;;;14.20;99.90;;;;;;5001307;28;20012;-71
2022/11/08 10:05:20;;;;;;;;;;;14.10;99.90;;;;;;4998307;28;20349;-71
2022/11/08 10:07:51;;;;;;;;;;;14.10;99.90;;;;;;5003686;28;19941;-71
2022/11/08 10:10:27;;;;;;;;;;;14.10;99.90;;;;;;5000829;28;20380;-71
2022/11/08 10:12:57;;;;;;;;;;;14.20;99.90;;;;;;4996852;28;19933;-70
2022/11/08 10:15:27;;;;;;;;;;;14.20;99.90;;;;;;5004700;28;19930;-71
2022/11/08 10:18:06;;;;;;;;;;;14.30;99.90;;;;;;5006993;28;20024;-71
2022/11/08 10:20:38;;;;;;;;;;;14.40;99.90;;;;;;5000661;28;19988;-71
2022/11/08 10:23:13;;;;;;;;;;;14.40;99.90;;;;;;4999681;28;20040;-71
2022/11/08 10:25:44;;;;;;;;;;;14.50;99.90;;;;;;5000853;28;19925;-72
2022/11/08 10:28:14;;;;;;;;;;;14.50;99.90;;;;;;5013272;22;20013;-71
2022/11/08 10:30:42;;;;;;;;;;;14.50;99.90;;;;;;5021328;28;20324;-72
2022/11/08 10:33:14;;;;;;;;;;;14.60;99.90;;;;;;4991800;28;19929;-71
2022/11/08 10:35:44;;;;;;;;;;;14.60;99.90;;;;;;4993508;28;20022;-72
2022/11/08 10:38:16;;;;;;;;;;;14.60;99.90;;;;;;4995265;28;19960;-71
2022/11/08 10:40:45;;;;;;;;;;;14.50;99.90;;;;;;4994799;28;20447;-72
2022/11/08 10:43:15;;;;;;;;;;;14.40;99.90;;;;;;4997957;28;19926;-71
2022/11/08 10:45:41;;;;;;;;;;;14.30;99.90;;;;;;4995059;28;19926;-68
2022/11/08 10:48:09;;;;;;;;;;;14.30;99.90;;;;;;5020566;28;20018;-70
2022/11/08 10:50:43;;;;;;;;;;;14.50;99.90;;;;;;5009104;28;20008;-69
2022/11/08 10:53:16;;;;;;;;;;;14.70;99.90;;;;;;5002727;28;19923;-69
2022/11/08 10:55:47;;;;;;;;;;;14.80;99.90;;;;;;5003021;28;20044;-70
2022/11/08 10:58:27;;;;;;;;;;;14.90;99.90;;;;;;5011445;28;19957;-69
2022/11/08 11:00:59;;;;;;;;;;;14.90;99.90;;;;;;5037523;28;20059;-70
2022/11/08 11:03:29;;;;;;;;;;;15.00;99.90;;;;;;5003860;28;19934;-70
2022/11/08 11:05:58;;;;;;;;;;;15.10;99.90;;;;;;5007747;28;19944;-70
2022/11/08 11:08:26;;;;;;;;;;;15.20;99.90;;;;;;5006585;28;19938;-69
2022/11/08 11:10:53;;;;;;;;;;;15.10;99.90;;;;;;4999283;28;20025;-70
2022/11/08 11:13:21;;;;;;;;;;;15.20;99.90;;;;;;5033275;28;20012;-69
2022/11/08 11:15:50;;;;;;;;;;;15.20;99.90;;;;;;5039886;28;20016;-68
2022/11/08 11:18:23;;;;;;;;;;;15.20;99.90;;;;;;5021675;28;19957;-69
2022/11/08 11:21:00;;;;;;;;;;;15.20;99.90;;;;;;5009170;28;20408;-69
2022/11/08 11:23:34;;;;;;;;;;;15.20;99.90;;;;;;5002193;28;19979;-70
2022/11/08 11:26:01;;;;;;;;;;;15.00;99.90;;;;;;5017508;28;20364;-69
2022/11/08 11:28:27;;;;;;;;;;;14.90;99.90;;;;;;5019394;28;19924;-69
2022/11/08 11:30:59;;;;;;;;;;;14.90;99.90;;;;;;5011763;28;19981;-72
2022/11/08 11:33:26;;;;;;;;;;;15.00;99.90;;;;;;5008658;28;19933;-70
2022/11/08 11:35:54;;;;;;;;;;;15.10;99.90;;;;;;5004357;28;19925;-70
2022/11/08 11:38:27;;;;;;;;;;;15.10;99.90;;;;;;5002535;28;19925;-69
2022/11/08 11:40:54;;;;;;;;;;;;;;;;;;5017048;28;20012;-70
2022/11/08 11:43:26;;;;;;;;;;;14.90;99.90;;;;;;5004929;28;19934;-71
2022/11/08 11:45:55;;;;;;;;;;;15.00;99.90;;;;;;5003605;28;20016;-71
2022/11/08 11:48:24;;;;;;;;;;;15.00;99.90;;;;;;5007764;28;19932;-71
2022/11/08 11:50:51;;;;;;;;;;;15.10;99.90;;;;;;5002193;28;19928;-71
2022/11/08 11:53:20;;;;;;;;;;;15.10;99.90;;;;;;5000904;28;19926;-71
2022/11/08 11:56:05;;;;;;;;;;;15.30;99.90;;;;;;5027572;28;19934;-70
2022/11/08 11:58:42;;;;;;;;;;;15.60;99.90;;;;;;5036347;28;19925;-69
2022/11/08 12:01:16;;;;;;;;;;;15.90;99.90;;;;;;5018417;28;19929;-69
2022/11/08 12:03:52;;;;;;;;;;;15.80;99.90;;;;;;4998637;28;19939;-70
2022/11/08 12:06:24;;;;;;;;;;;15.80;99.90;;;;;;5013525;28;20010;-70
2022/11/08 12:09:08;;;;;;;;;;;15.80;99.90;;;;;;5018035;28;19926;-69
2022/11/08 12:11:39;;;;;;;;;;;15.80;99.90;;;;;;5026357;28;20311;-70
2022/11/08 12:14:15;;;;;;;;;;;15.70;99.90;;;;;;5004716;28;19925;-70
2022/11/08 12:16:47;;;;;;;;;;;15.70;99.90;;;;;;5026546;28;19971;-69
2022/11/08 12:19:25;;;;;;;;;;;15.80;99.90;;;;;;5011891;28;20028;-69
2022/11/08 12:21:57;;;;;;;;;;;15.60;99.90;;;;;;5015284;28;19936;-71
2022/11/08 12:24:30;;;;;;;;;;;15.50;99.90;;;;;;5002265;28;19932;-69
2022/11/08 12:27:00;;;;;;;;;;;15.50;99.90;;;;;;5001929;28;20414;-70
2022/11/08 12:29:30;;;;;;;;;;;15.50;99.90;;;;;;5008762;28;19995;-71
2022/11/08 12:32:03;;;;;;;;;;;15.50;99.90;;;;;;5004957;28;19976;-70
2022/11/08 12:34:33;;;;;;;;;;;15.60;99.90;;;;;;5004338;28;19929;-69
2022/11/08 12:37:04;;;;;;;;;;;15.50;99.90;;;;;;5005259;28;19990;-70
2022/11/08 12:39:34;;;;;;;;;;;15.50;99.90;;;;;;5014333;28;19980;-70
2022/11/08 12:42:08;;;;;;;;;;;15.50;99.90;;;;;;5013857;28;19933;-70
2022/11/08 12:44:47;;;;;;;;;;;15.40;99.90;;;;;;4994221;28;19925;-70
2022/11/08 12:47:22;;;;;;;;;;;15.50;99.90;;;;;;5003822;28;19969;-70
2022/11/08 12:49:52;;;;;;;;;;;15.60;99.90;;;;;;5005350;28;20383;-70
2022/11/08 12:52:22;;;;;;;;;;;15.70;99.90;;;;;;5000314;28;20017;-70
2022/11/08 12:54:51;;;;;;;;;;;15.80;99.90;;;;;;5009428;28;20360;-70
2022/11/08 12:57:20;;;;;;;;;;;15.90;99.90;;;;;;5019328;28;19932;-71
2022/11/08 12:59:48;;;;;;;;;;;15.90;99.90;;;;;;5085053;28;19931;-70
2022/11/08 13:02:18;;;;;;;;;;;15.80;99.90;;;;;;5009799;28;20398;-70
2022/11/08 13:04:51;;;;;;;;;;;15.70;99.90;;;;;;5007686;28;20004;-70
2022/11/08 13:07:21;;;;;;;;;;;15.80;99.90;;;;;;5006556;28;19926;-70
2022/11/08 13:09:53;;;;;;;;;;;15.90;99.90;;;;;;5007987;28;19933;-70
2022/11/08 13:12:24;;;;;;;;;;;15.90;99.90;;;;;;5007615;28;19929;-70
2022/11/08 13:14:52;;;;;;;;;;;15.90;99.90;;;;;;5005296;28;20332;-70
2022/11/08 13:17:21;;;;;;;;;;;16.00;99.90;;;;;;5004240;28;20410;-69
2022/11/08 13:19:55;;;;;;;;;;;16.00;99.90;;;;;;5006690;28;19947;-70
2022/11/08 13:22:41;;;;;;;;;;;16.10;99.90;;;;;;5003470;28;19956;-69
2022/11/08 13:25:08;;;;;;;;;;;16.10;99.90;;;;;;5016260;28;20016;-69
2022/11/08 13:27:36;;;;;;;;;;;16.00;99.90;;;;;;5032487;28;19961;-69
2022/11/08 13:30:25;;;;;;;;;;;16.10;99.90;;;;;;5009026;28;20016;-69
2022/11/08 13:32:54;;;;;;;;;;;16.10;99.90;;;;;;5006677;28;19965;-70
2022/11/08 13:35:24;;;;;;;;;;;16.00;99.90;;;;;;5006900;28;19932;-69
2022/11/08 13:38:02;;;;;;;;;;;16.10;99.90;;;;;;5009033;28;19929;-70
2022/11/08 13:40:38;;;;;;;;;;;16.00;99.90;;;;;;5001034;28;21007;-70
2022/11/08 13:43:20;;;;;;;;;;;15.90;99.90;;;;;;5009070;28;20016;-70
2022/11/08 13:45:48;;;;;;;;;;;15.80;99.90;;;;;;5007045;28;19953;-71
2022/11/08 13:48:34;;;;;;;;;;;15.80;99.90;;;;;;5007567;28;20332;-70
2022/11/08 13:51:15;;;;;;;;;;;15.80;99.90;;;;;;5004282;28;19930;-71
2022/11/08 13:53:46;;;;;;;;;;;15.70;99.90;;;;;;5011540;28;20053;-70
2022/11/08 13:56:39;;;;;;;;;;;15.70;99.90;;;;;;5005153;28;19936;-70
2022/11/08 13:59:20;;;;;;;;;;;15.70;99.90;;;;;;5006563;28;19925;-70
2022/11/08 14:01:59;;;;;;;;;;;15.60;99.90;;;;;;4997618;28;19992;-70
2022/11/08 14:04:27;;;;;;;;;;;15.60;99.90;;;;;;4991984;28;19926;-71
2022/11/08 14:07:00;;;;;;;;;;;15.60;99.90;;;;;;5007652;28;19926;-71
2022/11/08 14:09:31;;;;;;;;;;;15.60;99.90;;;;;;5009307;28;19941;-72
2022/11/08 14:12:00;;;;;;;;;;;15.60;99.90;;;;;;5004117;28;19932;-73
2022/11/08 14:14:37;;;;;;;;;;;15.60;99.90;;;;;;5008626;28;20383;-72
2022/11/08 14:17:15;;;;;;;;;;;15.60;99.90;;;;;;5002869;28;20291;-72
2022/11/08 14:19:42;;;;;;;;;;;15.60;99.90;;;;;;5003611;28;19972;-72
2022/11/08 14:22:13;;;;;;;;;;;15.60;99.90;;;;;;5004246;28;19926;-73
2022/11/08 14:24:40;;;;;;;;;;;15.60;99.90;;;;;;5005316;28;20036;-72
2022/11/08 14:27:07;;;;;;;;;;;15.60;99.90;;;;;;5005026;28;19925;-70
2022/11/08 14:29:34;;;;;;;;;;;15.60;99.90;;;;;;5007607;28;19933;-71
2022/11/08 14:32:02;;;;;;;;;;;15.60;99.90;;;;;;5007974;28;20028;-70
2022/11/08 14:34:31;;;;;;;;;;;15.60;99.90;;;;;;5005172;28;19948;-71
2022/11/08 14:36:58;;;;;;;;;;;15.60;99.90;;;;;;5008660;28;20008;-69
2022/11/08 14:39:26;;;;;;;;;;;15.50;99.90;;;;;;5008344;28;20017;-71
2022/11/08 14:41:54;;;;;;;;;;;15.60;99.90;;;;;;5005248;28;19983;-70
2022/11/08 14:44:21;;;;;;;;;;;15.60;99.90;;;;;;5008227;28;19964;-71
2022/11/08 14:46:48;;;;;;;;;;;15.60;99.90;;;;;;5004852;28;19934;-69
2022/11/08 14:49:19;;;;;;;;;;;15.70;99.90;;;;;;4994550;28;19971;-71
2022/11/08 14:51:48;;;;;;;;;;;15.60;99.90;;;;;;5001613;28;19932;-70
2022/11/08 14:54:16;;;;;;;;;;;15.70;99.90;;;;;;5007603;28;20020;-70